sensor_id;sensor_type;location;lat;lon;timestamp;P1;durP1;ratioP1;P2;durP2;ratioP2
57191;SDS011;43052;52.588;13.396;2023-07-22T00:00:45;19.48;;;17.52;;
57191;SDS011;43052;52.588;13.396;2023-07-22T00:03:10;19.80;;;17.90;;
57191;SDS011;43052;52.588;13.396;2023-07-22T00:05:36;20.35;;;18.45;;
57191;SDS011;43052;52.588;13.396;2023-07-22T00:08:01;20.95;;;18.95;;
57191;SDS011;43052;52.588;13.396;2023-07-22T00:10:27;20.25;;;18.25;;
57191;SDS011;43052;52.588;13.396;2023-07-22T00:12:52;21.42;;;19.30;;
57191;SDS011;43052;52.588;13.396;2023-07-22T00:15:17;21.15;;;19.15;;
57191;SDS011;43052;52.588;13.396;2023-07-22T00:17:42;20.02;;;18.23;;
57191;SDS011;43052;52.588;13.396;2023-07-22T00:20:08;22.58;;;20.17;;
57191;SDS011;43052;52.588;13.396;2023-07-22T00:22:38;20.90;;;18.80;;
57191;SDS011;43052;52.588;13.396;2023-07-22T00:25:05;20.90;;;18.73;;
57191;SDS011;43052;52.588;13.396;2023-07-22T00:27:37;20.95;;;19.05;;
57191;SDS011;43052;52.588;13.396;2023-07-22T00:30:04;20.20;;;18.40;;
57191;SDS011;43052;52.588;13.396;2023-07-22T00:32:32;19.80;;;18.00;;
57191;SDS011;43052;52.588;13.396;2023-07-22T00:34:58;18.85;;;17.05;;
57191;SDS011;43052;52.588;13.396;2023-07-22T00:37:23;18.65;;;16.95;;
57191;SDS011;43052;52.588;13.396;2023-07-22T00:39:49;19.00;;;17.20;;
57191;SDS011;43052;52.588;13.396;2023-07-22T00:42:14;18.98;;;17.25;;
57191;SDS011;43052;52.588;13.396;2023-07-22T00:44:39;17.67;;;15.95;;
57191;SDS011;43052;52.588;13.396;2023-07-22T00:47:04;17.23;;;15.60;;
57191;SDS011;43052;52.588;13.396;2023-07-22T00:49:30;17.55;;;16.02;;
57191;SDS011;43052;52.588;13.396;2023-07-22T00:51:56;17.98;;;16.27;;
57191;SDS011;43052;52.588;13.396;2023-07-22T00:54:27;18.38;;;16.58;;
57191;SDS011;43052;52.588;13.396;2023-07-22T00:56:52;16.92;;;15.52;;
57191;SDS011;43052;52.588;13.396;2023-07-22T00:59:19;17.17;;;15.43;;
57191;SDS011;43052;52.588;13.396;2023-07-22T01:01:44;18.50;;;16.70;;
57191;SDS011;43052;52.588;13.396;2023-07-22T01:04:09;19.17;;;17.38;;
57191;SDS011;43052;52.588;13.396;2023-07-22T01:06:35;18.15;;;16.45;;
57191;SDS011;43052;52.588;13.396;2023-07-22T01:09:01;17.50;;;15.93;;
57191;SDS011;43052;52.588;13.396;2023-07-22T01:11:26;15.55;;;14.02;;
57191;SDS011;43052;52.588;13.396;2023-07-22T01:13:51;18.02;;;16.30;;
57191;SDS011;43052;52.588;13.396;2023-07-22T01:16:22;17.15;;;15.40;;
57191;SDS011;43052;52.588;13.396;2023-07-22T01:18:48;16.77;;;15.18;;
57191;SDS011;43052;52.588;13.396;2023-07-22T01:21:13;16.65;;;14.88;;
57191;SDS011;43052;52.588;13.396;2023-07-22T01:23:40;15.88;;;14.38;;
57191;SDS011;43052;52.588;13.396;2023-07-22T01:26:05;15.82;;;14.43;;
57191;SDS011;43052;52.588;13.396;2023-07-22T01:28:31;15.55;;;13.93;;
57191;SDS011;43052;52.588;13.396;2023-07-22T01:31:00;14.10;;;12.82;;
57191;SDS011;43052;52.588;13.396;2023-07-22T01:33:25;14.27;;;13.07;;
57191;SDS011;43052;52.588;13.396;2023-07-22T01:35:52;14.77;;;13.32;;
57191;SDS011;43052;52.588;13.396;2023-07-22T01:38:18;13.52;;;12.32;;
57191;SDS011;43052;52.588;13.396;2023-07-22T01:40:44;13.43;;;12.23;;
57191;SDS011;43052;52.588;13.396;2023-07-22T01:43:09;13.98;;;12.68;;
57191;SDS011;43052;52.588;13.396;2023-07-22T01:45:34;14.18;;;12.80;;
57191;SDS011;43052;52.588;13.396;2023-07-22T01:48:00;13.02;;;11.82;;
57191;SDS011;43052;52.588;13.396;2023-07-22T01:50:25;13.30;;;12.02;;
57191;SDS011;43052;52.588;13.396;2023-07-22T01:52:50;13.05;;;11.95;;
57191;SDS011;43052;52.588;13.396;2023-07-22T01:55:16;14.40;;;13.15;;
57191;SDS011;43052;52.588;13.396;2023-07-22T01:57:41;13.95;;;12.65;;
57191;SDS011;43052;52.588;13.396;2023-07-22T02:00:07;13.38;;;12.02;;
57191;SDS011;43052;52.588;13.396;2023-07-22T02:02:35;13.02;;;11.90;;
57191;SDS011;43052;52.588;13.396;2023-07-22T02:05:00;13.30;;;12.10;;
57191;SDS011;43052;52.588;13.396;2023-07-22T02:07:26;12.80;;;11.60;;
57191;SDS011;43052;52.588;13.396;2023-07-22T02:09:51;12.88;;;11.60;;
57191;SDS011;43052;52.588;13.396;2023-07-22T02:12:17;13.10;;;11.90;;
57191;SDS011;43052;52.588;13.396;2023-07-22T02:14:42;13.25;;;12.05;;
57191;SDS011;43052;52.588;13.396;2023-07-22T02:17:08;13.18;;;11.88;;
57191;SDS011;43052;52.588;13.396;2023-07-22T02:19:34;13.55;;;12.07;;
57191;SDS011;43052;52.588;13.396;2023-07-22T02:21:59;13.05;;;11.85;;
57191;SDS011;43052;52.588;13.396;2023-07-22T02:24:24;14.15;;;12.80;;
57191;SDS011;43052;52.588;13.396;2023-07-22T02:26:50;13.00;;;11.73;;
57191;SDS011;43052;52.588;13.396;2023-07-22T02:29:15;12.02;;;10.88;;
57191;SDS011;43052;52.588;13.396;2023-07-22T02:31:40;12.60;;;11.30;;
57191;SDS011;43052;52.588;13.396;2023-07-22T02:34:05;12.98;;;11.35;;
57191;SDS011;43052;52.588;13.396;2023-07-22T02:36:31;12.38;;;11.27;;
57191;SDS011;43052;52.588;13.396;2023-07-22T02:38:56;12.50;;;11.20;;
57191;SDS011;43052;52.588;13.396;2023-07-22T02:41:21;13.18;;;11.98;;
57191;SDS011;43052;52.588;13.396;2023-07-22T02:43:47;12.63;;;11.45;;
57191;SDS011;43052;52.588;13.396;2023-07-22T02:46:12;13.93;;;12.73;;
57191;SDS011;43052;52.588;13.396;2023-07-22T02:48:37;13.95;;;12.23;;
57191;SDS011;43052;52.588;13.396;2023-07-22T02:51:07;13.85;;;12.30;;
57191;SDS011;43052;52.588;13.396;2023-07-22T02:53:33;13.63;;;12.23;;
57191;SDS011;43052;52.588;13.396;2023-07-22T02:56:01;14.05;;;12.60;;
57191;SDS011;43052;52.588;13.396;2023-07-22T02:58:27;14.10;;;12.60;;
57191;SDS011;43052;52.588;13.396;2023-07-22T03:00:52;13.60;;;12.30;;
57191;SDS011;43052;52.588;13.396;2023-07-22T03:03:17;13.93;;;12.60;;
57191;SDS011;43052;52.588;13.396;2023-07-22T03:05:44;14.38;;;12.98;;
57191;SDS011;43052;52.588;13.396;2023-07-22T03:08:09;12.63;;;11.32;;
57191;SDS011;43052;52.588;13.396;2023-07-22T03:10:35;13.52;;;12.13;;
57191;SDS011;43052;52.588;13.396;2023-07-22T03:13:00;13.75;;;12.35;;
57191;SDS011;43052;52.588;13.396;2023-07-22T03:15:29;13.25;;;12.02;;
57191;SDS011;43052;52.588;13.396;2023-07-22T03:17:55;13.95;;;12.55;;
57191;SDS011;43052;52.588;13.396;2023-07-22T03:20:21;15.05;;;11.93;;
57191;SDS011;43052;52.588;13.396;2023-07-22T03:22:47;13.68;;;12.27;;
57191;SDS011;43052;52.588;13.396;2023-07-22T03:25:13;13.35;;;12.05;;
57191;SDS011;43052;52.588;13.396;2023-07-22T03:27:42;13.27;;;11.98;;
57191;SDS011;43052;52.588;13.396;2023-07-22T03:30:08;14.45;;;13.05;;
57191;SDS011;43052;52.588;13.396;2023-07-22T03:32:39;13.32;;;12.00;;
57191;SDS011;43052;52.588;13.396;2023-07-22T03:35:05;13.35;;;12.15;;
57191;SDS011;43052;52.588;13.396;2023-07-22T03:37:33;13.55;;;12.15;;
57191;SDS011;43052;52.588;13.396;2023-07-22T03:40:00;13.30;;;12.00;;
57191;SDS011;43052;52.588;13.396;2023-07-22T03:42:26;12.23;;;11.13;;
57191;SDS011;43052;52.588;13.396;2023-07-22T03:44:51;11.07;;;9.98;;
57191;SDS011;43052;52.588;13.396;2023-07-22T03:47:16;12.25;;;10.93;;
57191;SDS011;43052;52.588;13.396;2023-07-22T03:49:41;11.77;;;10.57;;
57191;SDS011;43052;52.588;13.396;2023-07-22T03:52:07;11.60;;;10.40;;
57191;SDS011;43052;52.588;13.396;2023-07-22T03:54:32;11.23;;;10.20;;
57191;SDS011;43052;52.588;13.396;2023-07-22T03:56:57;11.65;;;10.57;;
57191;SDS011;43052;52.588;13.396;2023-07-22T03:59:23;10.70;;;9.57;;
57191;SDS011;43052;52.588;13.396;2023-07-22T04:01:48;11.27;;;10.15;;
57191;SDS011;43052;52.588;13.396;2023-07-22T04:04:13;10.77;;;9.77;;
57191;SDS011;43052;52.588;13.396;2023-07-22T04:06:38;10.98;;;9.95;;
57191;SDS011;43052;52.588;13.396;2023-07-22T04:09:04;11.00;;;9.98;;
57191;SDS011;43052;52.588;13.396;2023-07-22T04:11:29;10.07;;;9.07;;
57191;SDS011;43052;52.588;13.396;2023-07-22T04:13:54;10.02;;;8.95;;
57191;SDS011;43052;52.588;13.396;2023-07-22T04:16:19;8.80;;;7.97;;
57191;SDS011;43052;52.588;13.396;2023-07-22T04:18:45;8.02;;;7.22;;
57191;SDS011;43052;52.588;13.396;2023-07-22T04:21:10;6.43;;;5.80;;
57191;SDS011;43052;52.588;13.396;2023-07-22T04:23:35;6.20;;;5.35;;
57191;SDS011;43052;52.588;13.396;2023-07-22T04:26:02;6.47;;;5.53;;
57191;SDS011;43052;52.588;13.396;2023-07-22T04:28:29;5.47;;;4.82;;
57191;SDS011;43052;52.588;13.396;2023-07-22T04:30:56;5.47;;;4.72;;
57191;SDS011;43052;52.588;13.396;2023-07-22T04:33:22;5.38;;;4.65;;
57191;SDS011;43052;52.588;13.396;2023-07-22T04:35:48;5.35;;;4.32;;
57191;SDS011;43052;52.588;13.396;2023-07-22T04:38:14;5.93;;;4.20;;
57191;SDS011;43052;52.588;13.396;2023-07-22T04:40:42;5.50;;;4.00;;
57191;SDS011;43052;52.588;13.396;2023-07-22T04:43:08;6.47;;;3.85;;
57191;SDS011;43052;52.588;13.396;2023-07-22T04:45:33;4.28;;;3.63;;
57191;SDS011;43052;52.588;13.396;2023-07-22T04:47:59;5.35;;;4.22;;
57191;SDS011;43052;52.588;13.396;2023-07-22T04:50:24;4.20;;;3.47;;
57191;SDS011;43052;52.588;13.396;2023-07-22T04:52:50;4.90;;;3.40;;
57191;SDS011;43052;52.588;13.396;2023-07-22T04:55:15;4.75;;;3.83;;
57191;SDS011;43052;52.588;13.396;2023-07-22T04:57:41;4.57;;;3.85;;
57191;SDS011;43052;52.588;13.396;2023-07-22T05:00:13;5.35;;;4.07;;
57191;SDS011;43052;52.588;13.396;2023-07-22T05:02:40;5.65;;;4.38;;
57191;SDS011;43052;52.588;13.396;2023-07-22T05:05:05;5.90;;;3.67;;
57191;SDS011;43052;52.588;13.396;2023-07-22T05:07:31;4.30;;;3.53;;
57191;SDS011;43052;52.588;13.396;2023-07-22T05:09:57;5.05;;;3.60;;
57191;SDS011;43052;52.588;13.396;2023-07-22T05:12:22;5.82;;;3.80;;
57191;SDS011;43052;52.588;13.396;2023-07-22T05:14:48;4.38;;;3.80;;
57191;SDS011;43052;52.588;13.396;2023-07-22T05:17:14;4.70;;;3.85;;
57191;SDS011;43052;52.588;13.396;2023-07-22T05:19:39;12.48;;;4.40;;
57191;SDS011;43052;52.588;13.396;2023-07-22T05:22:04;5.78;;;4.07;;
57191;SDS011;43052;52.588;13.396;2023-07-22T05:24:30;5.45;;;3.85;;
57191;SDS011;43052;52.588;13.396;2023-07-22T05:26:55;5.90;;;3.90;;
57191;SDS011;43052;52.588;13.396;2023-07-22T05:29:20;5.55;;;3.80;;
57191;SDS011;43052;52.588;13.396;2023-07-22T05:31:45;7.20;;;4.10;;
57191;SDS011;43052;52.588;13.396;2023-07-22T05:34:11;7.25;;;3.88;;
57191;SDS011;43052;52.588;13.396;2023-07-22T05:36:37;6.43;;;4.60;;
57191;SDS011;43052;52.588;13.396;2023-07-22T05:39:02;5.53;;;4.23;;
57191;SDS011;43052;52.588;13.396;2023-07-22T05:41:28;5.75;;;4.18;;
57191;SDS011;43052;52.588;13.396;2023-07-22T05:43:53;6.20;;;4.27;;
57191;SDS011;43052;52.588;13.396;2023-07-22T05:46:18;6.13;;;4.20;;
57191;SDS011;43052;52.588;13.396;2023-07-22T05:48:43;5.90;;;4.33;;
57191;SDS011;43052;52.588;13.396;2023-07-22T05:51:09;4.80;;;4.13;;
57191;SDS011;43052;52.588;13.396;2023-07-22T05:53:34;6.65;;;4.75;;
57191;SDS011;43052;52.588;13.396;2023-07-22T05:56:00;5.93;;;4.53;;
57191;SDS011;43052;52.588;13.396;2023-07-22T05:58:25;6.43;;;4.50;;
57191;SDS011;43052;52.588;13.396;2023-07-22T06:00:50;6.03;;;4.30;;
57191;SDS011;43052;52.588;13.396;2023-07-22T06:03:16;6.43;;;4.40;;
57191;SDS011;43052;52.588;13.396;2023-07-22T06:05:42;7.90;;;4.70;;
57191;SDS011;43052;52.588;13.396;2023-07-22T06:08:07;6.45;;;4.22;;
57191;SDS011;43052;52.588;13.396;2023-07-22T06:10:33;7.43;;;4.40;;
57191;SDS011;43052;52.588;13.396;2023-07-22T06:12:58;5.88;;;4.40;;
57191;SDS011;43052;52.588;13.396;2023-07-22T06:15:24;5.75;;;4.43;;
57191;SDS011;43052;52.588;13.396;2023-07-22T06:17:49;7.50;;;4.70;;
57191;SDS011;43052;52.588;13.396;2023-07-22T06:20:14;7.37;;;4.43;;
57191;SDS011;43052;52.588;13.396;2023-07-22T06:22:39;6.63;;;4.70;;
57191;SDS011;43052;52.588;13.396;2023-07-22T06:25:05;5.50;;;3.90;;
57191;SDS011;43052;52.588;13.396;2023-07-22T06:27:31;6.25;;;4.47;;
57191;SDS011;43052;52.588;13.396;2023-07-22T06:29:56;6.72;;;4.07;;
57191;SDS011;43052;52.588;13.396;2023-07-22T06:32:23;8.02;;;4.22;;
57191;SDS011;43052;52.588;13.396;2023-07-22T06:34:48;5.43;;;4.35;;
57191;SDS011;43052;52.588;13.396;2023-07-22T06:37:13;4.97;;;3.78;;
57191;SDS011;43052;52.588;13.396;2023-07-22T06:39:38;5.90;;;4.07;;
57191;SDS011;43052;52.588;13.396;2023-07-22T06:42:04;6.10;;;4.57;;
57191;SDS011;43052;52.588;13.396;2023-07-22T06:44:29;5.43;;;4.35;;
57191;SDS011;43052;52.588;13.396;2023-07-22T06:46:54;6.33;;;4.17;;
57191;SDS011;43052;52.588;13.396;2023-07-22T06:49:20;6.40;;;4.10;;
57191;SDS011;43052;52.588;13.396;2023-07-22T06:51:45;5.93;;;4.10;;
57191;SDS011;43052;52.588;13.396;2023-07-22T06:54:10;6.53;;;4.68;;
57191;SDS011;43052;52.588;13.396;2023-07-22T06:56:35;6.17;;;4.20;;
57191;SDS011;43052;52.588;13.396;2023-07-22T06:59:01;7.93;;;4.40;;
57191;SDS011;43052;52.588;13.396;2023-07-22T07:01:26;7.83;;;4.37;;
57191;SDS011;43052;52.588;13.396;2023-07-22T07:03:51;6.20;;;3.90;;
57191;SDS011;43052;52.588;13.396;2023-07-22T07:06:16;6.93;;;3.77;;
57191;SDS011;43052;52.588;13.396;2023-07-22T07:08:41;6.73;;;3.50;;
57191;SDS011;43052;52.588;13.396;2023-07-22T07:11:07;5.82;;;4.07;;
57191;SDS011;43052;52.588;13.396;2023-07-22T07:13:32;5.38;;;3.88;;
57191;SDS011;43052;52.588;13.396;2023-07-22T07:16:18;5.37;;;3.70;;
57191;SDS011;43052;52.588;13.396;2023-07-22T07:18:50;4.78;;;2.80;;
57191;SDS011;43052;52.588;13.396;2023-07-22T07:21:16;5.57;;;3.40;;
57191;SDS011;43052;52.588;13.396;2023-07-22T07:23:42;4.85;;;3.47;;
57191;SDS011;43052;52.588;13.396;2023-07-22T07:26:07;5.60;;;3.50;;
57191;SDS011;43052;52.588;13.396;2023-07-22T07:28:32;4.27;;;3.00;;
57191;SDS011;43052;52.588;13.396;2023-07-22T07:30:57;6.40;;;3.63;;
57191;SDS011;43052;52.588;13.396;2023-07-22T07:33:23;5.03;;;3.75;;
57191;SDS011;43052;52.588;13.396;2023-07-22T07:35:48;7.13;;;4.00;;
57191;SDS011;43052;52.588;13.396;2023-07-22T07:38:13;7.07;;;4.45;;
57191;SDS011;43052;52.588;13.396;2023-07-22T07:40:38;7.13;;;3.67;;
57191;SDS011;43052;52.588;13.396;2023-07-22T07:43:04;5.40;;;3.42;;
57191;SDS011;43052;52.588;13.396;2023-07-22T07:45:29;5.05;;;3.40;;
57191;SDS011;43052;52.588;13.396;2023-07-22T07:47:55;7.15;;;3.72;;
57191;SDS011;43052;52.588;13.396;2023-07-22T07:50:23;6.38;;;3.90;;
57191;SDS011;43052;52.588;13.396;2023-07-22T07:52:48;6.68;;;3.92;;
57191;SDS011;43052;52.588;13.396;2023-07-22T07:55:13;6.45;;;4.15;;
57191;SDS011;43052;52.588;13.396;2023-07-22T07:57:39;5.90;;;4.07;;
57191;SDS011;43052;52.588;13.396;2023-07-22T08:00:04;6.18;;;4.38;;
57191;SDS011;43052;52.588;13.396;2023-07-22T08:02:30;6.82;;;3.78;;
57191;SDS011;43052;52.588;13.396;2023-07-22T08:04:55;6.68;;;3.90;;
57191;SDS011;43052;52.588;13.396;2023-07-22T08:07:21;6.18;;;3.50;;
57191;SDS011;43052;52.588;13.396;2023-07-22T08:09:47;7.13;;;4.35;;
57191;SDS011;43052;52.588;13.396;2023-07-22T08:12:14;5.93;;;3.80;;
57191;SDS011;43052;52.588;13.396;2023-07-22T08:14:39;5.70;;;4.32;;
57191;SDS011;43052;52.588;13.396;2023-07-22T08:17:07;5.68;;;4.45;;
57191;SDS011;43052;52.588;13.396;2023-07-22T08:19:33;6.85;;;3.67;;
57191;SDS011;43052;52.588;13.396;2023-07-22T08:21:58;6.00;;;3.38;;
57191;SDS011;43052;52.588;13.396;2023-07-22T08:24:27;5.55;;;3.90;;
57191;SDS011;43052;52.588;13.396;2023-07-22T08:26:52;5.82;;;3.42;;
57191;SDS011;43052;52.588;13.396;2023-07-22T08:29:20;5.93;;;3.67;;
57191;SDS011;43052;52.588;13.396;2023-07-22T08:31:45;5.05;;;3.53;;
57191;SDS011;43052;52.588;13.396;2023-07-22T08:34:11;5.18;;;3.80;;
57191;SDS011;43052;52.588;13.396;2023-07-22T08:36:36;7.28;;;3.65;;
57191;SDS011;43052;52.588;13.396;2023-07-22T08:39:01;5.22;;;3.67;;
57191;SDS011;43052;52.588;13.396;2023-07-22T08:41:27;7.45;;;3.85;;
57191;SDS011;43052;52.588;13.396;2023-07-22T08:43:53;5.75;;;3.70;;
57191;SDS011;43052;52.588;13.396;2023-07-22T08:46:20;5.28;;;3.85;;
57191;SDS011;43052;52.588;13.396;2023-07-22T08:48:48;5.47;;;3.60;;
57191;SDS011;43052;52.588;13.396;2023-07-22T08:51:18;6.28;;;3.80;;
57191;SDS011;43052;52.588;13.396;2023-07-22T08:53:49;6.80;;;3.80;;
57191;SDS011;43052;52.588;13.396;2023-07-22T08:56:16;3.97;;;3.25;;
57191;SDS011;43052;52.588;13.396;2023-07-22T08:58:42;5.68;;;3.42;;
57191;SDS011;43052;52.588;13.396;2023-07-22T09:01:08;5.00;;;3.50;;
57191;SDS011;43052;52.588;13.396;2023-07-22T09:03:34;5.35;;;3.45;;
57191;SDS011;43052;52.588;13.396;2023-07-22T09:05:59;6.38;;;3.42;;
57191;SDS011;43052;52.588;13.396;2023-07-22T09:08:26;4.53;;;3.40;;
57191;SDS011;43052;52.588;13.396;2023-07-22T09:10:51;4.65;;;3.30;;
57191;SDS011;43052;52.588;13.396;2023-07-22T09:13:17;5.75;;;3.28;;
57191;SDS011;43052;52.588;13.396;2023-07-22T09:15:47;5.70;;;3.28;;
57191;SDS011;43052;52.588;13.396;2023-07-22T09:18:13;6.45;;;3.63;;
57191;SDS011;43052;52.588;13.396;2023-07-22T09:20:40;5.28;;;3.55;;
57191;SDS011;43052;52.588;13.396;2023-07-22T09:23:05;4.95;;;3.40;;
57191;SDS011;43052;52.588;13.396;2023-07-22T09:25:31;7.15;;;3.88;;
57191;SDS011;43052;52.588;13.396;2023-07-22T09:27:59;4.63;;;3.30;;
57191;SDS011;43052;52.588;13.396;2023-07-22T09:30:34;4.97;;;3.17;;
57191;SDS011;43052;52.588;13.396;2023-07-22T09:33:02;4.75;;;3.50;;
57191;SDS011;43052;52.588;13.396;2023-07-22T09:35:44;4.18;;;3.13;;
57191;SDS011;43052;52.588;13.396;2023-07-22T09:38:18;4.50;;;3.10;;
57191;SDS011;43052;52.588;13.396;2023-07-22T09:40:48;5.80;;;2.90;;
57191;SDS011;43052;52.588;13.396;2023-07-22T09:43:13;4.40;;;2.80;;
57191;SDS011;43052;52.588;13.396;2023-07-22T09:45:39;4.53;;;3.22;;
57191;SDS011;43052;52.588;13.396;2023-07-22T09:48:04;5.03;;;3.00;;
57191;SDS011;43052;52.588;13.396;2023-07-22T09:50:33;3.83;;;2.85;;
57191;SDS011;43052;52.588;13.396;2023-07-22T09:53:01;4.40;;;2.78;;
57191;SDS011;43052;52.588;13.396;2023-07-22T09:55:28;3.88;;;3.00;;
57191;SDS011;43052;52.588;13.396;2023-07-22T09:57:59;6.32;;;3.10;;
57191;SDS011;43052;52.588;13.396;2023-07-22T10:00:24;3.20;;;2.33;;
57191;SDS011;43052;52.588;13.396;2023-07-22T10:02:53;3.95;;;2.60;;
57191;SDS011;43052;52.588;13.396;2023-07-22T10:05:24;3.38;;;2.03;;
57191;SDS011;43052;52.588;13.396;2023-07-22T10:07:55;3.70;;;2.20;;
57191;SDS011;43052;52.588;13.396;2023-07-22T10:10:25;4.45;;;2.20;;
57191;SDS011;43052;52.588;13.396;2023-07-22T10:12:55;3.22;;;2.10;;
57191;SDS011;43052;52.588;13.396;2023-07-22T10:15:22;3.78;;;2.13;;
57191;SDS011;43052;52.588;13.396;2023-07-22T10:17:50;3.92;;;2.30;;
57191;SDS011;43052;52.588;13.396;2023-07-22T10:20:15;3.33;;;2.05;;
57191;SDS011;43052;52.588;13.396;2023-07-22T10:22:42;6.18;;;3.05;;
57191;SDS011;43052;52.588;13.396;2023-07-22T10:25:10;4.15;;;2.25;;
57191;SDS011;43052;52.588;13.396;2023-07-22T10:27:36;3.25;;;2.25;;
57191;SDS011;43052;52.588;13.396;2023-07-22T10:30:05;4.57;;;2.38;;
57191;SDS011;43052;52.588;13.396;2023-07-22T10:32:31;3.05;;;2.30;;
57191;SDS011;43052;52.588;13.396;2023-07-22T10:34:59;3.53;;;2.20;;
57191;SDS011;43052;52.588;13.396;2023-07-22T10:37:31;3.17;;;2.60;;
57191;SDS011;43052;52.588;13.396;2023-07-22T10:40:03;3.67;;;2.60;;
57191;SDS011;43052;52.588;13.396;2023-07-22T10:43:17;3.72;;;2.40;;
57191;SDS011;43052;52.588;13.396;2023-07-22T10:45:43;4.05;;;2.30;;
57191;SDS011;43052;52.588;13.396;2023-07-22T10:48:13;3.65;;;2.30;;
57191;SDS011;43052;52.588;13.396;2023-07-22T10:50:46;4.13;;;1.98;;
57191;SDS011;43052;52.588;13.396;2023-07-22T11:01:22;3.65;;;2.40;;
57191;SDS011;43052;52.588;13.396;2023-07-22T11:11:54;6.00;;;2.70;;
57191;SDS011;43052;52.588;13.396;2023-07-22T11:14:24;4.05;;;2.42;;
57191;SDS011;43052;52.588;13.396;2023-07-22T11:16:51;4.35;;;3.00;;
57191;SDS011;43052;52.588;13.396;2023-07-22T11:19:18;3.92;;;2.65;;
57191;SDS011;43052;52.588;13.396;2023-07-22T11:21:45;4.53;;;3.05;;
57191;SDS011;43052;52.588;13.396;2023-07-22T11:24:11;5.15;;;2.70;;
57191;SDS011;43052;52.588;13.396;2023-07-22T11:26:37;4.57;;;2.80;;
57191;SDS011;43052;52.588;13.396;2023-07-22T11:29:04;4.25;;;2.50;;
57191;SDS011;43052;52.588;13.396;2023-07-22T11:31:30;3.97;;;2.67;;
57191;SDS011;43052;52.588;13.396;2023-07-22T11:33:57;4.13;;;2.45;;
57191;SDS011;43052;52.588;13.396;2023-07-22T11:36:22;6.03;;;2.70;;
57191;SDS011;43052;52.588;13.396;2023-07-22T11:38:47;5.28;;;2.95;;
57191;SDS011;43052;52.588;13.396;2023-07-22T11:41:13;4.28;;;2.90;;
57191;SDS011;43052;52.588;13.396;2023-07-22T11:43:39;5.75;;;2.70;;
57191;SDS011;43052;52.588;13.396;2023-07-22T11:46:05;5.57;;;3.20;;
57191;SDS011;43052;52.588;13.396;2023-07-22T11:48:31;4.60;;;3.08;;
57191;SDS011;43052;52.588;13.396;2023-07-22T11:50:59;4.30;;;2.90;;
57191;SDS011;43052;52.588;13.396;2023-07-22T11:53:28;5.05;;;2.90;;
57191;SDS011;43052;52.588;13.396;2023-07-22T11:55:54;5.22;;;2.83;;
57191;SDS011;43052;52.588;13.396;2023-07-22T11:58:24;4.65;;;2.90;;
57191;SDS011;43052;52.588;13.396;2023-07-22T12:01:01;5.80;;;3.50;;
57191;SDS011;43052;52.588;13.396;2023-07-22T12:03:30;3.90;;;2.88;;
57191;SDS011;43052;52.588;13.396;2023-07-22T12:06:00;4.07;;;2.63;;
57191;SDS011;43052;52.588;13.396;2023-07-22T12:08:26;5.20;;;3.13;;
57191;SDS011;43052;52.588;13.396;2023-07-22T12:10:58;5.18;;;3.20;;
57191;SDS011;43052;52.588;13.396;2023-07-22T12:13:23;6.13;;;2.92;;
57191;SDS011;43052;52.588;13.396;2023-07-22T12:16:02;5.22;;;3.08;;
57191;SDS011;43052;52.588;13.396;2023-07-22T12:18:40;8.43;;;3.10;;
57191;SDS011;43052;52.588;13.396;2023-07-22T12:21:12;4.75;;;2.70;;
57191;SDS011;43052;52.588;13.396;2023-07-22T12:23:38;5.00;;;3.03;;
57191;SDS011;43052;52.588;13.396;2023-07-22T12:26:04;4.30;;;2.90;;
57191;SDS011;43052;52.588;13.396;2023-07-22T12:28:30;5.10;;;3.20;;
57191;SDS011;43052;52.588;13.396;2023-07-22T12:30:55;6.10;;;3.25;;
57191;SDS011;43052;52.588;13.396;2023-07-22T12:33:22;6.50;;;3.13;;
57191;SDS011;43052;52.588;13.396;2023-07-22T12:35:49;5.32;;;3.60;;
57191;SDS011;43052;52.588;13.396;2023-07-22T12:38:14;5.00;;;2.88;;
57191;SDS011;43052;52.588;13.396;2023-07-22T12:40:39;4.97;;;3.13;;
57191;SDS011;43052;52.588;13.396;2023-07-22T12:43:05;6.70;;;3.70;;
57191;SDS011;43052;52.588;13.396;2023-07-22T12:45:33;5.57;;;3.58;;
57191;SDS011;43052;52.588;13.396;2023-07-22T12:47:58;5.30;;;3.30;;
57191;SDS011;43052;52.588;13.396;2023-07-22T12:50:24;5.15;;;3.30;;
57191;SDS011;43052;52.588;13.396;2023-07-22T12:52:49;5.50;;;3.20;;
57191;SDS011;43052;52.588;13.396;2023-07-22T12:55:14;6.15;;;3.63;;
57191;SDS011;43052;52.588;13.396;2023-07-22T12:57:40;6.22;;;3.67;;
57191;SDS011;43052;52.588;13.396;2023-07-22T13:00:05;4.57;;;3.25;;
57191;SDS011;43052;52.588;13.396;2023-07-22T13:02:34;5.53;;;3.67;;
57191;SDS011;43052;52.588;13.396;2023-07-22T13:04:59;6.45;;;3.60;;
57191;SDS011;43052;52.588;13.396;2023-07-22T13:07:24;7.65;;;3.92;;
57191;SDS011;43052;52.588;13.396;2023-07-22T13:09:50;6.97;;;3.80;;
57191;SDS011;43052;52.588;13.396;2023-07-22T13:12:18;6.80;;;3.90;;
57191;SDS011;43052;52.588;13.396;2023-07-22T13:14:43;6.90;;;3.90;;
57191;SDS011;43052;52.588;13.396;2023-07-22T13:17:08;4.95;;;3.75;;
57191;SDS011;43052;52.588;13.396;2023-07-22T13:19:33;5.35;;;3.67;;
57191;SDS011;43052;52.588;13.396;2023-07-22T13:21:59;6.55;;;3.92;;
57191;SDS011;43052;52.588;13.396;2023-07-22T13:24:24;6.10;;;3.80;;
57191;SDS011;43052;52.588;13.396;2023-07-22T13:26:49;6.10;;;3.75;;
57191;SDS011;43052;52.588;13.396;2023-07-22T13:29:14;5.82;;;4.03;;
57191;SDS011;43052;52.588;13.396;2023-07-22T13:31:40;6.40;;;4.35;;
57191;SDS011;43052;52.588;13.396;2023-07-22T13:34:05;7.38;;;3.95;;
57191;SDS011;43052;52.588;13.396;2023-07-22T13:36:30;7.22;;;3.88;;
57191;SDS011;43052;52.588;13.396;2023-07-22T13:38:55;5.22;;;4.03;;
57191;SDS011;43052;52.588;13.396;2023-07-22T13:41:20;6.05;;;3.63;;
57191;SDS011;43052;52.588;13.396;2023-07-22T13:43:46;7.03;;;3.83;;
57191;SDS011;43052;52.588;13.396;2023-07-22T13:46:11;5.55;;;3.70;;
57191;SDS011;43052;52.588;13.396;2023-07-22T13:48:36;5.45;;;3.60;;
57191;SDS011;43052;52.588;13.396;2023-07-22T13:51:02;5.90;;;3.83;;
57191;SDS011;43052;52.588;13.396;2023-07-22T13:53:27;5.60;;;3.70;;
57191;SDS011;43052;52.588;13.396;2023-07-22T13:55:52;5.60;;;3.60;;
57191;SDS011;43052;52.588;13.396;2023-07-22T13:58:17;6.63;;;3.38;;
57191;SDS011;43052;52.588;13.396;2023-07-22T14:00:43;7.97;;;3.83;;
57191;SDS011;43052;52.588;13.396;2023-07-22T14:03:08;6.35;;;3.75;;
57191;SDS011;43052;52.588;13.396;2023-07-22T14:05:35;8.25;;;4.20;;
57191;SDS011;43052;52.588;13.396;2023-07-22T14:08:00;4.88;;;3.47;;
57191;SDS011;43052;52.588;13.396;2023-07-22T14:10:25;5.15;;;3.83;;
57191;SDS011;43052;52.588;13.396;2023-07-22T14:12:51;6.60;;;4.07;;
57191;SDS011;43052;52.588;13.396;2023-07-22T14:15:16;6.78;;;3.60;;
57191;SDS011;43052;52.588;13.396;2023-07-22T14:17:41;5.05;;;3.80;;
57191;SDS011;43052;52.588;13.396;2023-07-22T14:20:07;5.70;;;3.83;;
57191;SDS011;43052;52.588;13.396;2023-07-22T14:22:32;5.50;;;3.95;;
57191;SDS011;43052;52.588;13.396;2023-07-22T14:24:58;6.38;;;4.15;;
57191;SDS011;43052;52.588;13.396;2023-07-22T14:27:23;7.65;;;4.40;;
57191;SDS011;43052;52.588;13.396;2023-07-22T14:29:48;7.55;;;4.22;;
57191;SDS011;43052;52.588;13.396;2023-07-22T14:32:13;7.13;;;3.92;;
57191;SDS011;43052;52.588;13.396;2023-07-22T14:34:41;6.55;;;4.13;;
57191;SDS011;43052;52.588;13.396;2023-07-22T14:37:06;4.97;;;4.20;;